createdAt,value
2022-08-26T00:04:40.293Z,100118.77
2022-08-26T00:13:04.529Z,100119.98
2022-08-26T00:21:27.803Z,100118.89
2022-08-26T00:29:52.156Z,100117.37
2022-08-26T00:38:17.035Z,100113.84
2022-08-26T00:46:46.855Z,100114.27
2022-08-26T00:55:20.415Z,100109.98
2022-08-26T01:03:45.511Z,100114.02
2022-08-26T01:12:08.498Z,100119.16
2022-08-26T01:20:48.362Z,100116.81
2022-08-26T01:29:19.253Z,100116.02
2022-08-26T01:37:43.078Z,100116.98
2022-08-26T01:46:06.749Z,100122.38
2022-08-26T01:54:33.834Z,100114.73
2022-08-26T02:03:17.233Z,100113.52
2022-08-26T02:11:40.554Z,100111.40
2022-08-26T02:20:04.437Z,100111.84
2022-08-26T02:28:34.350Z,100107.30
2022-08-26T02:37:03.991Z,100099.90
2022-08-26T02:45:29.001Z,100095.58
2022-08-26T02:53:52.441Z,100095.69
2022-08-26T03:02:15.595Z,100088.69
2022-08-26T03:10:39.406Z,100094.17
2022-08-26T03:19:05.633Z,100087.59
2022-08-26T03:27:29.380Z,100090.36
2022-08-26T03:35:55.979Z,100090.35
2022-08-26T03:44:19.684Z,100086.86
2022-08-26T03:52:44.075Z,100082.75
2022-08-26T04:01:07.281Z,100080.38
2022-08-26T04:09:30.464Z,100076.90
2022-08-26T04:17:58.384Z,100075.09
2022-08-26T04:26:23.258Z,100074.39
2022-08-26T04:34:46.251Z,100072.03
2022-08-26T04:43:09.774Z,100075.79
2022-08-26T04:51:33.430Z,100078.36
2022-08-26T04:59:56.276Z,100074.39
2022-08-26T05:08:21.468Z,100076.16
2022-08-26T05:16:44.694Z,100074.30
2022-08-26T05:25:10.644Z,100076.34
2022-08-26T05:33:33.480Z,100081.19
2022-08-26T05:41:56.713Z,100085.52
2022-08-26T05:50:23.345Z,100082.62
2022-08-26T05:58:46.792Z,100085.70
2022-08-26T06:07:11.483Z,100086.95
2022-08-26T06:15:38.997Z,100074.98
2022-08-26T06:24:29.528Z,100073.40
2022-08-26T06:32:53.397Z,100075.10
2022-08-26T06:41:18.402Z,100075.92
2022-08-26T06:49:42.106Z,100078.98
2022-08-26T06:58:09.611Z,100079.42
2022-08-26T07:06:39.158Z,100082.02
2022-08-26T07:15:02.735Z,100075.98
2022-08-26T07:23:25.712Z,100079.80
2022-08-26T07:31:48.898Z,100075.25
2022-08-26T07:40:12.030Z,100078.38
2022-08-26T07:48:38.069Z,100079.80
2022-08-26T07:57:01.858Z,100069.27
2022-08-26T08:05:33.438Z,100067.93
2022-08-26T08:13:57.415Z,100063.36
2022-08-26T08:22:24.039Z,100062.27
2022-08-26T08:30:47.871Z,100065.08
2022-08-26T08:39:12.042Z,100064.63
2022-08-26T08:47:57.289Z,100055.41
2022-08-26T08:56:25.986Z,100054.76
2022-08-26T09:05:07.776Z,100043.84
2022-08-26T09:13:31.752Z,100033.99
2022-08-26T09:22:01.624Z,100033.80
2022-08-26T09:30:36.031Z,100027.85
2022-08-26T09:38:59.793Z,100022.03
2022-08-26T09:47:46.142Z,100019.73
2022-08-26T09:56:27.559Z,100008.11
2022-08-26T10:04:56.701Z,100004.61
2022-08-26T10:13:34.207Z,99993.52
2022-08-26T10:22:05.377Z,99990.21
2022-08-26T10:30:45.805Z,99989.69
2022-08-26T10:39:19.087Z,99980.59
2022-08-26T10:48:07.290Z,99973.65
2022-08-26T10:56:48.703Z,99972.73
2022-08-26T11:05:24.922Z,99958.95
2022-08-26T11:13:57.712Z,99952.17
2022-08-26T11:22:29.495Z,99948.91
2022-08-26T11:30:57.523Z,99946.13
2022-08-26T11:39:53.995Z,99934.40
2022-08-26T11:48:40.175Z,99929.93
2022-08-26T11:57:11.788Z,99928.61
2022-08-26T12:05:42.559Z,99922.52
2022-08-26T12:14:34.962Z,99916.70
2022-08-26T12:23:02.586Z,99910.11
2022-08-26T12:31:36.769Z,99899.82
2022-08-26T12:40:33.582Z,99894.00
2022-08-26T12:49:01.423Z,99890.48
2022-08-26T12:57:37.335Z,99884.62
2022-08-26T13:06:31.586Z,99871.89
2022-08-26T13:14:55.557Z,99863.25
2022-08-26T13:23:21.792Z,99860.08
2022-08-26T13:31:46.299Z,99856.01
2022-08-26T13:40:11.601Z,99855.00
2022-08-26T13:48:35.407Z,99850.62
2022-08-26T13:57:00.394Z,99843.92
2022-08-26T14:05:23.280Z,99840.06
2022-08-26T14:13:46.165Z,99837.11
2022-08-26T14:22:08.927Z,99832.90
2022-08-26T14:30:32.204Z,99831.20
2022-08-26T14:39:10.122Z,99827.59
2022-08-26T14:47:33.341Z,99821.00
2022-08-26T14:55:56.819Z,99819.36
2022-08-26T15:04:20.589Z,99811.79
2022-08-26T15:12:44.930Z,99810.33
2022-08-26T15:21:08.501Z,99810.15
2022-08-26T15:29:32.843Z,99809.09
2022-08-26T15:37:59.885Z,99804.44
2022-08-26T15:46:22.942Z,99796.86
2022-08-26T15:54:45.929Z,99792.94
2022-08-26T16:03:08.815Z,99794.36
2022-08-26T16:11:31.649Z,99791.73
2022-08-26T16:19:56.978Z,99788.67
2022-08-26T16:28:26.151Z,99788.86
2022-08-26T16:36:49.333Z,99783.20
2022-08-26T16:45:12.312Z,99779.93
2022-08-26T16:53:35.203Z,99785.74
2022-08-26T17:01:58.346Z,99787.76
2022-08-26T17:10:28.808Z,99788.88
2022-08-26T17:18:51.724Z,99792.96
2022-08-26T17:27:14.911Z,99791.42
2022-08-26T17:35:37.839Z,99797.93
2022-08-26T17:44:00.826Z,99797.09
2022-08-26T17:52:24.171Z,99802.92
2022-08-26T18:00:50.773Z,99804.70
2022-08-26T18:09:13.749Z,99802.48
2022-08-26T18:17:39.537Z,99802.52
2022-08-26T18:26:02.612Z,99805.84
2022-08-26T18:34:25.479Z,99809.73
2022-08-26T18:42:54.980Z,99808.06
2022-08-26T18:51:22.287Z,99805.98
2022-08-26T18:59:45.789Z,99803.47
2022-08-26T19:08:09.568Z,99801.23
2022-08-26T19:16:34.307Z,99799.94
2022-08-26T19:24:57.626Z,99803.98
2022-08-26T19:33:21.852Z,99808.46
2022-08-26T19:41:45.660Z,99808.91
2022-08-26T19:50:12.623Z,99806.30
2022-08-26T19:58:35.514Z,99806.71
2022-08-26T20:07:00.989Z,99813.85
2022-08-26T20:15:24.473Z,99814.14
2022-08-26T20:23:52.300Z,99818.13
2022-08-26T20:32:15.287Z,99817.80
2022-08-26T20:40:39.483Z,99819.10
2022-08-26T20:49:04.378Z,99821.11
2022-08-26T20:57:29.259Z,99823.55
2022-08-26T21:05:52.393Z,99824.30
2022-08-26T21:14:17.248Z,99819.80
2022-08-26T21:22:44.339Z,99821.43
2022-08-26T21:31:12.080Z,99829.02
2022-08-26T21:39:34.960Z,99826.20
2022-08-26T21:47:57.791Z,99825.80
2022-08-26T21:56:23.791Z,99819.38
2022-08-26T22:04:48.956Z,99815.70
2022-08-26T22:13:12.074Z,99815.36
2022-08-26T22:21:39.258Z,99811.53
2022-08-26T22:30:02.701Z,99822.61
2022-08-26T22:38:26.116Z,99825.71
2022-08-26T22:46:54.279Z,99823.03
2022-08-26T22:55:17.949Z,99816.40
2022-08-26T23:03:41.558Z,99801.96
2022-08-26T23:12:04.654Z,99796.44
2022-08-26T23:20:29.205Z,99790.80
2022-08-26T23:28:53.818Z,99786.02
2022-08-26T23:37:17.399Z,99783.30
2022-08-26T23:45:41.600Z,99774.58
2022-08-26T23:54:04.583Z,99768.98
